»·PEaware :: AAL1512 KDFW-KBOS

AAL1512 :: KDFW-KBOS

FLIGHT INFORMATION

Flight Status: Arrived
Operator:
American Airlines
More flights by this operator :: More flights under this callsign
Pilot: Drew Leevy (13237)
Aircraft: BOEING 757-200
(B752)
More flights by this aircraft type
Origin: KDFW Dallas-Ft Worth Intl
United States
Destination: KBOS Logan Intl
United States
More flights between these airports :: More routes between these airports
Route: ZACHH2 BSKAT LIT J131 PXV KLYNE Q29 JHW Q82 PONCT JFUND1
File this flight plan on PilotEdge
Remarks:
Altitude:
(Current/Filed)
34,000ft
Speed:
(Current/Filed)
500kts
Departed: 25-Mar-17 08:46 PM
Arrived: 26-Mar-17 12:09 AM
Distance/Time
Traveled:
1353nm/3:22
Distance/Time
To Go:
Arrived

Flight Plot

Page will automatically refresh every two minutes.

Flight plan parsing failed; only flown route is shown


Map Options




Map Legend


Flown Route
Filed Route
Departure Airport
Arrival Airport
Navaid (VOR, NDB)
Fix

Horizontal Profiles

Position Reports

Time Latitude Longitude Heading Altitude Ground
Speed
25-Mar-17 20:31 32.905531 -97.035112 270 618ft 0kts
25-Mar-17 20:32 32.905531 -97.035112 270 618ft 0kts
25-Mar-17 20:33 32.905531 -97.035112 270 618ft 0kts
25-Mar-17 20:34 32.905531 -97.035112 270 618ft 0kts
25-Mar-17 20:35 32.905531 -97.035112 270 617ft 0kts
25-Mar-17 20:36 32.905531 -97.035112 270 617ft 0kts
25-Mar-17 20:37 32.905531 -97.035112 270 617ft 0kts
25-Mar-17 20:38 32.905556 -97.034542 250 617ft 2kts
25-Mar-17 20:39 32.905962 -97.034314 167 617ft 2kts
25-Mar-17 20:40 32.905968 -97.034316 167 617ft 0kts
25-Mar-17 20:41 32.905256 -97.033872 145 617ft 5kts
25-Mar-17 20:42 32.900120 -97.033214 179 617ft 28kts
25-Mar-17 20:43 32.892998 -97.033255 178 617ft 23kts
25-Mar-17 20:44 32.886802 -97.033290 180 617ft 21kts
25-Mar-17 20:45 32.881075 -97.032980 178 617ft 19kts
25-Mar-17 20:46 32.879793 -97.030166 37 617ft 7kts
25-Mar-17 20:47 32.899005 -97.029982 359 702ft 178kts
25-Mar-17 20:48 32.961332 -97.029002 1 3202ft 250kts
25-Mar-17 20:49 33.032833 -97.026302 359 6288ft 282kts
25-Mar-17 20:50 33.081356 -96.962284 90 9408ft 303kts
25-Mar-17 20:51 33.070602 -96.854144 101 10763ft 371kts
25-Mar-17 20:52 33.052497 -96.726404 102 13448ft 403kts
25-Mar-17 20:53 33.033003 -96.591360 101 16053ft 425kts
25-Mar-17 20:54 33.012784 -96.449869 101 18371ft 444kts
25-Mar-17 20:55 33.009012 -96.301936 75 20601ft 461kts
25-Mar-17 20:56 33.058170 -96.159105 66 22529ft 475kts
25-Mar-17 20:57 33.108777 -96.011475 66 24265ft 487kts
25-Mar-17 20:58 33.162587 -95.861630 67 25786ft 499kts
25-Mar-17 20:59 33.215986 -95.707348 68 27139ft 509kts
25-Mar-17 21:00 33.271355 -95.550284 67 28348ft 519kts
25-Mar-17 21:01 33.326973 -95.389530 67 29464ft 528kts
25-Mar-17 21:02 33.382445 -95.227657 67 30737ft 528kts
25-Mar-17 21:03 33.437726 -95.064678 67 31915ft 528kts
25-Mar-17 21:04 33.492912 -94.902192 68 33018ft 528kts
25-Mar-17 21:05 33.546747 -94.738956 68 33969ft 527kts
25-Mar-17 21:06 33.601091 -94.576698 67 33991ft 526kts
25-Mar-17 21:07 33.656245 -94.414677 68 33993ft 526kts
25-Mar-17 21:08 33.711520 -94.252376 62 33993ft 525kts
25-Mar-17 21:09 33.783651 -94.100450 59 33997ft 525kts
25-Mar-17 21:10 33.855686 -93.948114 60 33999ft 525kts
25-Mar-17 21:11 33.927430 -93.795690 60 33991ft 525kts
25-Mar-17 21:12 33.998998 -93.642640 60 33992ft 525kts
25-Mar-17 21:13 34.070488 -93.490327 60 33994ft 524kts
25-Mar-17 21:14 34.141993 -93.337305 60 33996ft 524kts
25-Mar-17 21:15 34.213815 -93.184775 60 34010ft 524kts
25-Mar-17 21:16 34.285585 -93.031738 59 34027ft 524kts
25-Mar-17 21:17 34.356885 -92.879209 60 34022ft 523kts
25-Mar-17 21:18 34.427224 -92.725549 61 34022ft 523kts
25-Mar-17 21:19 34.497422 -92.571538 61 34024ft 522kts
25-Mar-17 21:20 34.568226 -92.418425 61 34018ft 522kts
25-Mar-17 21:21 34.638077 -92.264720 61 34020ft 521kts
25-Mar-17 21:22 34.721838 -92.122289 45 34027ft 521kts
25-Mar-17 21:23 34.821177 -91.994700 45 34023ft 521kts
25-Mar-17 21:24 34.920411 -91.866709 46 34017ft 521kts
25-Mar-17 21:25 35.019535 -91.738877 46 34019ft 521kts
25-Mar-17 21:26 35.118026 -91.609740 46 34021ft 520kts
25-Mar-17 21:27 35.216747 -91.481233 46 34013ft 519kts
25-Mar-17 21:28 35.315337 -91.353115 46 33997ft 518kts
25-Mar-17 21:29 35.414014 -91.225402 46 33999ft 518kts
25-Mar-17 21:30 35.512883 -91.096956 46 34001ft 518kts
25-Mar-17 21:31 35.609505 -90.967265 47 33994ft 517kts
25-Mar-17 21:32 35.707035 -90.837957 47 33989ft 517kts
25-Mar-17 21:33 35.804703 -90.708588 48 33991ft 517kts
25-Mar-17 21:34 35.902949 -90.580216 48 33993ft 516kts
25-Mar-17 21:35 36.000504 -90.450857 48 33994ft 516kts
25-Mar-17 21:36 36.096895 -90.319864 48 33969ft 515kts
25-Mar-17 21:37 36.176939 -90.211465 48 33970ft 515kts
25-Mar-17 21:38 36.290099 -90.059894 48 33972ft 514kts
25-Mar-17 21:39 36.370582 -89.950744 48 33973ft 514kts
25-Mar-17 21:40 36.481988 -89.798391 48 33970ft 513kts
25-Mar-17 21:41 36.577253 -89.669404 50 33959ft 489kts
25-Mar-17 21:42 36.652998 -89.565280 50 33964ft 488kts
25-Mar-17 21:43 36.758747 -89.419163 50 33965ft 488kts
25-Mar-17 21:44 36.848808 -89.293342 52 33966ft 487kts
25-Mar-17 21:45 36.923020 -89.187163 50 33966ft 487kts
25-Mar-17 21:46 37.013518 -89.061762 50 33973ft 487kts
25-Mar-17 21:47 37.119423 -88.915157 50 33994ft 488kts
25-Mar-17 21:48 37.193997 -88.810349 51 33995ft 487kts
25-Mar-17 21:49 37.297609 -88.661960 51 33994ft 486kts
25-Mar-17 21:50 37.372155 -88.555556 50 33997ft 488kts
25-Mar-17 21:51 37.463035 -88.429365 50 33970ft 488kts
25-Mar-17 21:52 37.552799 -88.301803 50 33996ft 488kts
25-Mar-17 21:53 37.641365 -88.173353 51 33965ft 487kts
25-Mar-17 21:54 37.731046 -88.045154 50 33965ft 488kts
25-Mar-17 21:55 37.820180 -87.916349 50 33992ft 488kts
25-Mar-17 21:56 37.909020 -87.788005 51 33994ft 488kts
25-Mar-17 21:57 37.996722 -87.657623 52 33994ft 487kts
25-Mar-17 21:58 38.083732 -87.526341 52 33994ft 487kts
25-Mar-17 21:59 38.170688 -87.394535 52 33996ft 487kts
25-Mar-17 22:00 38.256927 -87.262556 53 34022ft 487kts
25-Mar-17 22:01 38.343516 -87.130804 52 34021ft 483kts
25-Mar-17 22:02 38.429107 -86.999570 52 34000ft 483kts
25-Mar-17 22:03 38.514656 -86.868084 52 33997ft 483kts
25-Mar-17 22:04 38.599872 -86.735704 53 33992ft 483kts
25-Mar-17 22:05 38.684854 -86.603200 53 34019ft 483kts
25-Mar-17 22:06 38.769936 -86.470626 52 34020ft 483kts
25-Mar-17 22:07 38.855473 -86.338460 52 34072ft 483kts
25-Mar-17 22:08 38.940290 -86.205276 53 34074ft 483kts
25-Mar-17 22:09 39.024904 -86.071643 53 34075ft 483kts
25-Mar-17 22:10 39.109219 -85.937891 53 34075ft 483kts
25-Mar-17 22:11 39.193836 -85.804234 53 34077ft 483kts
25-Mar-17 22:12 39.278101 -85.669849 53 34023ft 483kts
25-Mar-17 22:13 39.361862 -85.535333 53 34050ft 483kts
25-Mar-17 22:14 39.445846 -85.399830 53 34050ft 483kts
25-Mar-17 22:15 39.529150 -85.264656 53 34051ft 483kts
25-Mar-17 22:16 39.612677 -85.128877 53 34066ft 483kts
25-Mar-17 22:17 39.696021 -84.992669 53 34046ft 483kts
25-Mar-17 22:18 39.779108 -84.856429 54 34074ft 483kts
25-Mar-17 22:19 39.862486 -84.719751 53 34048ft 483kts
25-Mar-17 22:20 39.945645 -84.582740 54 34052ft 483kts
25-Mar-17 22:21 40.028077 -84.444675 56 34052ft 483kts
25-Mar-17 22:22 40.110715 -84.307248 54 34048ft 483kts
25-Mar-17 22:23 40.193251 -84.169114 55 34050ft 483kts
25-Mar-17 22:24 40.275069 -84.030071 57 34076ft 483kts
25-Mar-17 22:25 40.356315 -83.889730 56 34077ft 484kts
25-Mar-17 22:26 40.438764 -83.751361 54 34079ft 484kts
25-Mar-17 22:27 40.521997 -83.612576 55 34079ft 484kts
25-Mar-17 22:28 40.603439 -83.473309 55 34099ft 484kts
25-Mar-17 22:29 40.684915 -83.332932 55 34100ft 484kts
25-Mar-17 22:30 40.767765 -83.191605 53 34105ft 494kts
25-Mar-17 22:31 40.852373 -83.046361 54 34105ft 505kts
25-Mar-17 22:32 40.938156 -82.899712 54 34130ft 505kts
25-Mar-17 22:33 40.938750 -82.898691 54 34130ft 505kts
25-Mar-17 22:34 40.938750 -82.898691 54 34130ft 505kts
25-Mar-17 22:35 40.938750 -82.898691 54 34130ft 505kts
25-Mar-17 22:36 40.938750 -82.898691 54 34130ft 505kts
25-Mar-17 22:37 40.938750 -82.898691 54 34130ft 505kts
25-Mar-17 22:38 40.938750 -82.898691 54 34130ft 505kts
25-Mar-17 22:39 40.938750 -82.898691 54 34130ft 505kts
25-Mar-17 22:40 40.938750 -82.898691 54 34130ft 505kts
25-Mar-17 22:41 40.938750 -82.898691 54 34130ft 505kts
25-Mar-17 22:42 40.938750 -82.898691 54 34130ft 505kts
25-Mar-17 22:43 40.938750 -82.898691 54 34130ft 505kts
25-Mar-17 22:44 40.938750 -82.898691 54 34130ft 505kts
25-Mar-17 22:45 40.938750 -82.898691 54 34130ft 505kts
25-Mar-17 22:46 40.938750 -82.898691 54 34130ft 505kts
25-Mar-17 22:47 40.938750 -82.898691 54 34130ft 505kts
25-Mar-17 22:48 40.938750 -82.898691 54 34130ft 505kts
25-Mar-17 22:49 40.938750 -82.898691 54 34130ft 505kts
25-Mar-17 22:50 40.938750 -82.898691 54 34130ft 505kts
25-Mar-17 22:51 40.938750 -82.898691 54 34130ft 505kts
25-Mar-17 22:52 41.014952 -82.768592 55 34138ft 505kts
25-Mar-17 22:53 41.100206 -82.621334 54 34156ft 505kts
25-Mar-17 22:54 41.173667 -82.465262 62 34162ft 503kts
25-Mar-17 22:55 41.240713 -82.302102 63 34158ft 503kts
25-Mar-17 22:56 41.306524 -82.138256 63 34160ft 504kts
25-Mar-17 22:57 41.366481 -81.970673 69 34170ft 502kts
25-Mar-17 22:58 41.421643 -81.800523 69 34185ft 503kts
25-Mar-17 22:59 41.476318 -81.628914 69 34160ft 504kts
25-Mar-17 23:00 41.529813 -81.457127 69 34187ft 504kts
25-Mar-17 23:01 41.583292 -81.284453 69 34154ft 505kts
25-Mar-17 23:02 41.637902 -81.111910 69 34209ft 506kts
25-Mar-17 23:03 41.690470 -80.937782 70 34210ft 505kts
25-Mar-17 23:04 41.743352 -80.763830 69 34207ft 506kts
25-Mar-17 23:05 41.796397 -80.590379 70 34184ft 507kts
25-Mar-17 23:06 41.844653 -80.413313 71 34209ft 507kts
25-Mar-17 23:07 41.893867 -80.236725 71 34211ft 507kts
25-Mar-17 23:08 41.939915 -80.058144 73 34212ft 507kts
25-Mar-17 23:09 41.985869 -79.879196 72 34210ft 508kts
25-Mar-17 23:10 42.035832 -79.701622 71 34237ft 509kts
25-Mar-17 23:11 42.083423 -79.522996 72 34238ft 509kts
25-Mar-17 23:12 42.130147 -79.343061 72 34239ft 510kts
25-Mar-17 23:13 42.176401 -79.163177 72 34240ft 510kts
25-Mar-17 23:14 42.204984 -78.976989 82 34236ft 508kts
25-Mar-17 23:15 42.229477 -78.791068 82 33995ft 508kts
25-Mar-17 23:16 42.253345 -78.603211 82 33995ft 509kts
25-Mar-17 23:17 42.276494 -78.415169 82 34000ft 510kts
25-Mar-17 23:18 42.299352 -78.226497 82 33998ft 511kts
25-Mar-17 23:19 42.321748 -78.038074 82 34235ft 510kts
25-Mar-17 23:20 42.344366 -77.848543 82 34344ft 511kts
25-Mar-17 23:21 42.366885 -77.659221 83 34346ft 511kts
25-Mar-17 23:22 42.388562 -77.470013 83 34347ft 512kts
25-Mar-17 23:23 42.409980 -77.279690 83 34376ft 512kts
25-Mar-17 23:24 42.431009 -77.089858 82 34377ft 513kts
25-Mar-17 23:25 42.451631 -76.899168 83 34379ft 513kts
25-Mar-17 23:26 42.472837 -76.708597 83 34373ft 513kts
25-Mar-17 23:27 42.493000 -76.517125 83 34374ft 514kts
25-Mar-17 23:28 42.512885 -76.326216 83 34354ft 514kts
25-Mar-17 23:29 42.532633 -76.134545 83 34350ft 515kts
25-Mar-17 23:30 42.551502 -75.942337 82 34350ft 515kts
25-Mar-17 23:31 42.571188 -75.750726 83 34341ft 515kts
25-Mar-17 23:32 42.590190 -75.557712 83 34343ft 516kts
25-Mar-17 23:33 42.608177 -75.366444 84 34420ft 516kts
25-Mar-17 23:34 42.626321 -75.173123 83 34428ft 516kts
25-Mar-17 23:35 42.643674 -74.980252 83 34429ft 516kts
25-Mar-17 23:36 42.662240 -74.786922 83 34424ft 516kts
25-Mar-17 23:37 42.679166 -74.593767 84 34478ft 516kts
25-Mar-17 23:38 42.694648 -74.400504 84 34478ft 514kts
25-Mar-17 23:39 42.710722 -74.206908 84 34482ft 517kts
25-Mar-17 23:40 42.728579 -74.013539 83 34483ft 517kts
25-Mar-17 23:41 42.744589 -73.819570 88 34475ft 516kts
25-Mar-17 23:42 42.744570 -73.624951 91 34478ft 516kts
25-Mar-17 23:43 42.743018 -73.429565 92 34453ft 516kts
25-Mar-17 23:44 42.740947 -73.235013 92 34455ft 516kts
25-Mar-17 23:45 42.730566 -73.040210 98 34466ft 524kts
25-Mar-17 23:46 42.707529 -72.845854 98 32976ft 517kts
25-Mar-17 23:47 42.686237 -72.654938 99 29983ft 510kts
25-Mar-17 23:48 42.663182 -72.467871 100 27004ft 496kts
25-Mar-17 23:49 42.641632 -72.289388 99 25365ft 449kts
25-Mar-17 23:50 42.622591 -72.127595 100 23294ft 428kts
25-Mar-17 23:51 42.603467 -71.971378 98 21176ft 411kts
25-Mar-17 23:52 42.584777 -71.822071 100 19069ft 395kts
25-Mar-17 23:53 42.563139 -71.678794 102 16897ft 384kts
25-Mar-17 23:54 42.539017 -71.541701 107 15231ft 360kts
25-Mar-17 23:55 42.511889 -71.413973 106 13421ft 348kts
25-Mar-17 23:56 42.488076 -71.295144 104 12383ft 316kts
25-Mar-17 23:57 42.465062 -71.181649 105 10832ft 308kts
25-Mar-17 23:58 42.451905 -71.073402 94 9640ft 291kts
25-Mar-17 23:59 42.407733 -71.001036 154 8748ft 259kts
26-Mar-17 00:00 42.345458 -70.957764 156 7584ft 242kts
26-Mar-17 00:01 42.283617 -70.946488 200 6697ft 230kts
26-Mar-17 00:02 42.223438 -70.971589 200 6482ft 226kts
26-Mar-17 00:03 42.167123 -70.999950 232 6240ft 203kts
26-Mar-17 00:04 42.162215 -71.063131 317 5284ft 188kts
26-Mar-17 00:05 42.206152 -71.087393 24 3442ft 182kts
26-Mar-17 00:06 42.248501 -71.062010 18 2282ft 147kts
26-Mar-17 00:07 42.282581 -71.044987 18 1538ft 126kts
26-Mar-17 00:08 42.315220 -71.029120 17 867ft 123kts
26-Mar-17 00:09 42.346498 -71.013994 18 240ft 121kts
26-Mar-17 00:10 42.368710 -71.003252 19 32ft 26kts
26-Mar-17 00:11 42.375491 -71.002513 352 32ft 22kts
26-Mar-17 00:12 42.372992 -71.005098 200 31ft 22kts
26-Mar-17 00:13 42.366921 -71.008047 199 32ft 23kts
26-Mar-17 00:14 42.364691 -71.012605 199 32ft 21kts
26-Mar-17 00:15 42.364196 -71.015433 307 32ft 8kts
26-Mar-17 00:16 42.363873 -71.016460 194 31ft 0kts
26-Mar-17 00:17 42.363873 -71.016460 194 31ft 0kts

Navigation Log

Ident Type
Flight plan parsing failed, navigation log unavailable